sensor_id;sensor_type;location;lat;lon;timestamp;P1;durP1;ratioP1;P2;durP2;ratioP2
76380;SDS011;65202;52.520;10.528;2023-02-08T00:01:11;97.00;;;44.08;;
76380;SDS011;65202;52.520;10.528;2023-02-08T00:03:41;105.07;;;43.58;;
76380;SDS011;65202;52.520;10.528;2023-02-08T00:06:09;102.15;;;42.17;;
76380;SDS011;65202;52.520;10.528;2023-02-08T00:08:36;97.38;;;42.28;;
76380;SDS011;65202;52.520;10.528;2023-02-08T00:11:05;101.20;;;42.22;;
76380;SDS011;65202;52.520;10.528;2023-02-08T00:13:36;100.13;;;42.97;;
76380;SDS011;65202;52.520;10.528;2023-02-08T00:16:08;105.35;;;42.80;;
76380;SDS011;65202;52.520;10.528;2023-02-08T00:18:38;106.93;;;44.92;;
76380;SDS011;65202;52.520;10.528;2023-02-08T00:21:10;104.72;;;44.60;;
76380;SDS011;65202;52.520;10.528;2023-02-08T00:23:40;106.18;;;45.58;;
76380;SDS011;65202;52.520;10.528;2023-02-08T00:26:07;99.22;;;43.08;;
76380;SDS011;65202;52.520;10.528;2023-02-08T00:28:35;105.10;;;44.38;;
76380;SDS011;65202;52.520;10.528;2023-02-08T00:31:02;116.63;;;47.53;;
76380;SDS011;65202;52.520;10.528;2023-02-08T00:33:31;110.47;;;45.90;;
76380;SDS011;65202;52.520;10.528;2023-02-08T00:35:59;107.63;;;45.53;;
76380;SDS011;65202;52.520;10.528;2023-02-08T00:38:27;114.97;;;45.88;;
76380;SDS011;65202;52.520;10.528;2023-02-08T00:40:55;116.05;;;47.05;;
76380;SDS011;65202;52.520;10.528;2023-02-08T00:43:23;113.47;;;47.10;;
76380;SDS011;65202;52.520;10.528;2023-02-08T00:45:56;119.50;;;47.05;;
76380;SDS011;65202;52.520;10.528;2023-02-08T00:48:26;111.82;;;45.78;;
76380;SDS011;65202;52.520;10.528;2023-02-08T00:51:02;112.38;;;45.40;;
76380;SDS011;65202;52.520;10.528;2023-02-08T00:53:42;116.57;;;46.03;;
76380;SDS011;65202;52.520;10.528;2023-02-08T00:56:12;119.45;;;48.15;;
76380;SDS011;65202;52.520;10.528;2023-02-08T00:58:41;116.90;;;46.78;;
76380;SDS011;65202;52.520;10.528;2023-02-08T01:01:09;127.75;;;47.10;;
76380;SDS011;65202;52.520;10.528;2023-02-08T01:03:39;121.88;;;47.28;;
76380;SDS011;65202;52.520;10.528;2023-02-08T01:06:09;125.57;;;49.30;;
76380;SDS011;65202;52.520;10.528;2023-02-08T01:08:40;121.60;;;48.55;;
76380;SDS011;65202;52.520;10.528;2023-02-08T01:11:12;119.85;;;48.50;;
76380;SDS011;65202;52.520;10.528;2023-02-08T01:13:44;125.60;;;48.88;;
76380;SDS011;65202;52.520;10.528;2023-02-08T01:16:13;120.03;;;48.65;;
76380;SDS011;65202;52.520;10.528;2023-02-08T01:18:42;112.45;;;45.58;;
76380;SDS011;65202;52.520;10.528;2023-02-08T01:21:13;126.85;;;49.47;;
76380;SDS011;65202;52.520;10.528;2023-02-08T01:23:45;120.13;;;48.65;;
76380;SDS011;65202;52.520;10.528;2023-02-08T01:26:13;121.18;;;46.83;;
76380;SDS011;65202;52.520;10.528;2023-02-08T01:28:42;125.18;;;48.95;;
76380;SDS011;65202;52.520;10.528;2023-02-08T01:31:11;125.10;;;49.58;;
76380;SDS011;65202;52.520;10.528;2023-02-08T01:33:42;130.60;;;49.67;;
76380;SDS011;65202;52.520;10.528;2023-02-08T01:36:09;125.13;;;48.90;;
76380;SDS011;65202;52.520;10.528;2023-02-08T01:38:37;134.50;;;51.20;;
76380;SDS011;65202;52.520;10.528;2023-02-08T01:41:05;124.55;;;48.33;;
76380;SDS011;65202;52.520;10.528;2023-02-08T01:43:57;126.15;;;48.60;;
76380;SDS011;65202;52.520;10.528;2023-02-08T01:46:40;122.57;;;49.35;;
76380;SDS011;65202;52.520;10.528;2023-02-08T01:49:26;120.53;;;48.85;;
76380;SDS011;65202;52.520;10.528;2023-02-08T01:52:04;124.18;;;48.17;;
76380;SDS011;65202;52.520;10.528;2023-02-08T01:54:49;130.70;;;48.72;;
76380;SDS011;65202;52.520;10.528;2023-02-08T01:57:22;124.40;;;49.20;;
76380;SDS011;65202;52.520;10.528;2023-02-08T01:59:52;124.10;;;48.63;;
76380;SDS011;65202;52.520;10.528;2023-02-08T02:02:27;125.85;;;48.60;;
76380;SDS011;65202;52.520;10.528;2023-02-08T02:04:55;121.97;;;49.75;;
76380;SDS011;65202;52.520;10.528;2023-02-08T02:07:23;131.65;;;48.90;;
76380;SDS011;65202;52.520;10.528;2023-02-08T02:12:48;133.52;;;52.28;;
76380;SDS011;65202;52.520;10.528;2023-02-08T02:15:18;131.52;;;49.10;;
76380;SDS011;65202;52.520;10.528;2023-02-08T02:17:45;132.13;;;51.38;;
76380;SDS011;65202;52.520;10.528;2023-02-08T02:20:30;129.48;;;50.40;;
76380;SDS011;65202;52.520;10.528;2023-02-08T02:23:26;129.18;;;49.75;;
76380;SDS011;65202;52.520;10.528;2023-02-08T02:26:38;122.63;;;48.47;;
76380;SDS011;65202;52.520;10.528;2023-02-08T02:32:47;122.03;;;47.08;;
76380;SDS011;65202;52.520;10.528;2023-02-08T02:38:30;120.38;;;46.92;;
76380;SDS011;65202;52.520;10.528;2023-02-08T02:47:55;117.55;;;46.63;;
76380;SDS011;65202;52.520;10.528;2023-02-08T02:56:12;121.43;;;47.63;;
76380;SDS011;65202;52.520;10.528;2023-02-08T02:58:47;126.32;;;49.00;;
76380;SDS011;65202;52.520;10.528;2023-02-08T03:01:22;125.63;;;49.35;;
76380;SDS011;65202;52.520;10.528;2023-02-08T03:03:56;121.38;;;47.85;;
76380;SDS011;65202;52.520;10.528;2023-02-08T03:11:56;130.23;;;49.65;;
76380;SDS011;65202;52.520;10.528;2023-02-08T03:17:53;132.75;;;49.63;;
76380;SDS011;65202;52.520;10.528;2023-02-08T03:23:29;131.40;;;49.23;;
76380;SDS011;65202;52.520;10.528;2023-02-08T03:26:19;134.95;;;50.22;;
76380;SDS011;65202;52.520;10.528;2023-02-08T03:29:24;136.13;;;49.10;;
76380;SDS011;65202;52.520;10.528;2023-02-08T03:32:24;133.75;;;48.67;;
76380;SDS011;65202;52.520;10.528;2023-02-08T03:35:08;134.30;;;49.65;;
76380;SDS011;65202;52.520;10.528;2023-02-08T03:37:49;135.85;;;50.47;;
76380;SDS011;65202;52.520;10.528;2023-02-08T03:40:55;129.70;;;48.23;;
76380;SDS011;65202;52.520;10.528;2023-02-08T03:43:30;138.50;;;51.35;;
76380;SDS011;65202;52.520;10.528;2023-02-08T03:48:38;131.55;;;50.70;;
76380;SDS011;65202;52.520;10.528;2023-02-08T03:51:11;137.43;;;51.58;;
76380;SDS011;65202;52.520;10.528;2023-02-08T03:53:41;136.27;;;51.72;;
76380;SDS011;65202;52.520;10.528;2023-02-08T03:56:14;137.98;;;50.28;;
76380;SDS011;65202;52.520;10.528;2023-02-08T03:58:56;131.32;;;49.38;;
76380;SDS011;65202;52.520;10.528;2023-02-08T04:01:28;139.15;;;49.80;;
76380;SDS011;65202;52.520;10.528;2023-02-08T04:04:04;126.75;;;48.78;;
76380;SDS011;65202;52.520;10.528;2023-02-08T04:06:32;132.77;;;49.10;;
76380;SDS011;65202;52.520;10.528;2023-02-08T04:08:59;131.20;;;50.85;;
76380;SDS011;65202;52.520;10.528;2023-02-08T04:11:26;133.38;;;49.83;;
76380;SDS011;65202;52.520;10.528;2023-02-08T04:13:53;136.98;;;51.53;;
76380;SDS011;65202;52.520;10.528;2023-02-08T04:16:20;137.00;;;50.00;;
76380;SDS011;65202;52.520;10.528;2023-02-08T04:18:47;142.95;;;51.42;;
76380;SDS011;65202;52.520;10.528;2023-02-08T04:21:15;133.25;;;50.85;;
76380;SDS011;65202;52.520;10.528;2023-02-08T04:23:42;134.77;;;49.70;;
76380;SDS011;65202;52.520;10.528;2023-02-08T04:26:11;139.50;;;51.83;;
76380;SDS011;65202;52.520;10.528;2023-02-08T04:28:38;134.70;;;50.47;;
76380;SDS011;65202;52.520;10.528;2023-02-08T04:31:05;145.68;;;52.33;;
76380;SDS011;65202;52.520;10.528;2023-02-08T04:33:33;135.82;;;50.92;;
76380;SDS011;65202;52.520;10.528;2023-02-08T04:36:00;135.00;;;51.85;;
76380;SDS011;65202;52.520;10.528;2023-02-08T04:38:27;137.45;;;51.60;;
76380;SDS011;65202;52.520;10.528;2023-02-08T04:40:54;141.25;;;52.33;;
76380;SDS011;65202;52.520;10.528;2023-02-08T04:43:21;135.65;;;49.30;;
76380;SDS011;65202;52.520;10.528;2023-02-08T04:45:49;144.35;;;53.13;;
76380;SDS011;65202;52.520;10.528;2023-02-08T04:48:17;137.68;;;52.67;;
76380;SDS011;65202;52.520;10.528;2023-02-08T04:50:45;137.07;;;52.35;;
76380;SDS011;65202;52.520;10.528;2023-02-08T04:53:12;142.48;;;51.38;;
76380;SDS011;65202;52.520;10.528;2023-02-08T04:55:40;144.07;;;52.45;;
76380;SDS011;65202;52.520;10.528;2023-02-08T04:58:07;141.60;;;51.97;;
76380;SDS011;65202;52.520;10.528;2023-02-08T05:00:34;146.90;;;52.40;;
76380;SDS011;65202;52.520;10.528;2023-02-08T05:03:01;144.32;;;51.67;;
76380;SDS011;65202;52.520;10.528;2023-02-08T05:05:29;143.25;;;52.17;;
76380;SDS011;65202;52.520;10.528;2023-02-08T05:07:57;151.07;;;52.45;;
76380;SDS011;65202;52.520;10.528;2023-02-08T05:10:24;143.18;;;51.38;;
76380;SDS011;65202;52.520;10.528;2023-02-08T05:12:52;146.10;;;52.15;;
76380;SDS011;65202;52.520;10.528;2023-02-08T05:15:19;153.48;;;53.45;;
76380;SDS011;65202;52.520;10.528;2023-02-08T05:17:46;146.65;;;52.70;;
76380;SDS011;65202;52.520;10.528;2023-02-08T05:20:13;141.55;;;51.00;;
76380;SDS011;65202;52.520;10.528;2023-02-08T05:22:41;147.82;;;52.40;;
76380;SDS011;65202;52.520;10.528;2023-02-08T05:25:08;144.10;;;51.40;;
76380;SDS011;65202;52.520;10.528;2023-02-08T05:27:35;143.27;;;52.03;;
76380;SDS011;65202;52.520;10.528;2023-02-08T05:30:03;141.32;;;52.60;;
76380;SDS011;65202;52.520;10.528;2023-02-08T05:32:31;143.63;;;50.75;;
76380;SDS011;65202;52.520;10.528;2023-02-08T05:34:58;141.07;;;52.28;;
76380;SDS011;65202;52.520;10.528;2023-02-08T05:37:25;141.50;;;51.63;;
76380;SDS011;65202;52.520;10.528;2023-02-08T05:39:53;139.18;;;51.42;;
76380;SDS011;65202;52.520;10.528;2023-02-08T05:42:20;139.95;;;51.42;;
76380;SDS011;65202;52.520;10.528;2023-02-08T05:44:47;134.73;;;49.97;;
76380;SDS011;65202;52.520;10.528;2023-02-08T05:47:14;128.95;;;48.72;;
76380;SDS011;65202;52.520;10.528;2023-02-08T05:49:41;140.20;;;51.38;;
76380;SDS011;65202;52.520;10.528;2023-02-08T05:52:09;139.98;;;50.42;;
76380;SDS011;65202;52.520;10.528;2023-02-08T05:54:36;135.02;;;49.55;;
76380;SDS011;65202;52.520;10.528;2023-02-08T05:57:04;138.30;;;49.58;;
76380;SDS011;65202;52.520;10.528;2023-02-08T05:59:31;133.02;;;49.25;;
76380;SDS011;65202;52.520;10.528;2023-02-08T06:01:59;138.48;;;50.03;;
76380;SDS011;65202;52.520;10.528;2023-02-08T06:04:26;147.32;;;53.22;;
76380;SDS011;65202;52.520;10.528;2023-02-08T06:06:53;148.50;;;51.03;;
76380;SDS011;65202;52.520;10.528;2023-02-08T06:09:20;137.10;;;50.97;;
76380;SDS011;65202;52.520;10.528;2023-02-08T06:11:47;142.05;;;49.10;;
76380;SDS011;65202;52.520;10.528;2023-02-08T06:14:15;140.93;;;50.58;;
76380;SDS011;65202;52.520;10.528;2023-02-08T06:16:42;139.25;;;50.35;;
76380;SDS011;65202;52.520;10.528;2023-02-08T06:19:10;145.32;;;51.17;;
76380;SDS011;65202;52.520;10.528;2023-02-08T06:21:37;146.80;;;48.53;;
76380;SDS011;65202;52.520;10.528;2023-02-08T06:24:04;140.07;;;49.78;;
76380;SDS011;65202;52.520;10.528;2023-02-08T06:26:32;139.45;;;49.35;;
76380;SDS011;65202;52.520;10.528;2023-02-08T06:29:00;136.07;;;49.33;;
76380;SDS011;65202;52.520;10.528;2023-02-08T06:31:27;136.18;;;48.65;;
76380;SDS011;65202;52.520;10.528;2023-02-08T06:33:54;139.02;;;50.42;;
76380;SDS011;65202;52.520;10.528;2023-02-08T06:36:21;144.15;;;50.85;;
76380;SDS011;65202;52.520;10.528;2023-02-08T06:38:48;146.48;;;53.03;;
76380;SDS011;65202;52.520;10.528;2023-02-08T06:41:17;131.75;;;48.78;;
76380;SDS011;65202;52.520;10.528;2023-02-08T06:43:44;146.48;;;50.78;;
76380;SDS011;65202;52.520;10.528;2023-02-08T06:46:12;135.45;;;51.10;;
76380;SDS011;65202;52.520;10.528;2023-02-08T06:48:39;138.05;;;48.50;;
76380;SDS011;65202;52.520;10.528;2023-02-08T06:51:06;143.38;;;50.30;;
76380;SDS011;65202;52.520;10.528;2023-02-08T06:53:34;142.10;;;53.33;;
76380;SDS011;65202;52.520;10.528;2023-02-08T06:56:01;152.70;;;53.60;;
76380;SDS011;65202;52.520;10.528;2023-02-08T06:58:28;152.73;;;55.00;;
76380;SDS011;65202;52.520;10.528;2023-02-08T07:00:56;141.25;;;49.50;;
76380;SDS011;65202;52.520;10.528;2023-02-08T07:03:23;128.50;;;47.00;;
76380;SDS011;65202;52.520;10.528;2023-02-08T07:05:50;134.38;;;48.58;;
76380;SDS011;65202;52.520;10.528;2023-02-08T07:08:31;138.05;;;48.30;;
76380;SDS011;65202;52.520;10.528;2023-02-08T07:11:04;137.57;;;47.55;;
76380;SDS011;65202;52.520;10.528;2023-02-08T07:13:37;135.07;;;47.13;;
76380;SDS011;65202;52.520;10.528;2023-02-08T07:16:05;138.90;;;48.42;;
76380;SDS011;65202;52.520;10.528;2023-02-08T07:18:35;137.05;;;48.42;;
76380;SDS011;65202;52.520;10.528;2023-02-08T07:21:03;141.52;;;50.22;;
76380;SDS011;65202;52.520;10.528;2023-02-08T07:23:30;136.80;;;48.13;;
76380;SDS011;65202;52.520;10.528;2023-02-08T07:28:27;144.15;;;48.50;;
76380;SDS011;65202;52.520;10.528;2023-02-08T07:30:55;137.32;;;48.53;;
76380;SDS011;65202;52.520;10.528;2023-02-08T07:33:23;131.48;;;47.50;;
76380;SDS011;65202;52.520;10.528;2023-02-08T07:35:51;136.48;;;48.70;;
76380;SDS011;65202;52.520;10.528;2023-02-08T07:38:18;138.90;;;48.53;;
76380;SDS011;65202;52.520;10.528;2023-02-08T07:40:46;142.05;;;48.15;;
76380;SDS011;65202;52.520;10.528;2023-02-08T07:43:14;137.13;;;49.22;;
76380;SDS011;65202;52.520;10.528;2023-02-08T07:45:41;131.75;;;48.30;;
76380;SDS011;65202;52.520;10.528;2023-02-08T07:48:08;133.45;;;47.83;;
76380;SDS011;65202;52.520;10.528;2023-02-08T07:50:35;127.40;;;46.17;;
76380;SDS011;65202;52.520;10.528;2023-02-08T07:53:02;131.85;;;46.28;;
76380;SDS011;65202;52.520;10.528;2023-02-08T07:55:29;133.20;;;47.22;;
76380;SDS011;65202;52.520;10.528;2023-02-08T07:57:57;122.32;;;44.63;;
76380;SDS011;65202;52.520;10.528;2023-02-08T08:00:24;124.90;;;47.03;;
76380;SDS011;65202;52.520;10.528;2023-02-08T08:02:52;129.95;;;47.53;;
76380;SDS011;65202;52.520;10.528;2023-02-08T08:05:19;123.40;;;45.60;;
76380;SDS011;65202;52.520;10.528;2023-02-08T08:07:47;123.63;;;46.35;;
76380;SDS011;65202;52.520;10.528;2023-02-08T08:10:14;107.38;;;44.72;;
76380;SDS011;65202;52.520;10.528;2023-02-08T08:12:41;107.95;;;47.50;;
76380;SDS011;65202;52.520;10.528;2023-02-08T08:15:09;99.72;;;46.45;;
76380;SDS011;65202;52.520;10.528;2023-02-08T08:17:36;98.32;;;45.65;;
76380;SDS011;65202;52.520;10.528;2023-02-08T08:20:08;99.07;;;45.83;;
76380;SDS011;65202;52.520;10.528;2023-02-08T08:22:37;94.13;;;47.00;;
76380;SDS011;65202;52.520;10.528;2023-02-08T08:25:04;93.70;;;46.97;;
76380;SDS011;65202;52.520;10.528;2023-02-08T08:27:31;96.28;;;48.35;;
76380;SDS011;65202;52.520;10.528;2023-02-08T08:30:00;92.75;;;48.05;;
76380;SDS011;65202;52.520;10.528;2023-02-08T08:32:28;89.97;;;46.35;;
76380;SDS011;65202;52.520;10.528;2023-02-08T08:34:55;88.05;;;48.08;;
76380;SDS011;65202;52.520;10.528;2023-02-08T08:37:22;86.75;;;47.70;;
76380;SDS011;65202;52.520;10.528;2023-02-08T08:39:49;83.22;;;48.60;;
76380;SDS011;65202;52.520;10.528;2023-02-08T08:42:16;84.60;;;47.72;;
76380;SDS011;65202;52.520;10.528;2023-02-08T08:44:43;80.93;;;47.78;;
76380;SDS011;65202;52.520;10.528;2023-02-08T08:47:11;78.13;;;47.15;;
76380;SDS011;65202;52.520;10.528;2023-02-08T08:49:38;73.57;;;44.85;;
76380;SDS011;65202;52.520;10.528;2023-02-08T08:52:06;76.63;;;46.47;;
76380;SDS011;65202;52.520;10.528;2023-02-08T08:54:33;75.50;;;45.88;;
76380;SDS011;65202;52.520;10.528;2023-02-08T08:57:01;75.63;;;44.28;;
76380;SDS011;65202;52.520;10.528;2023-02-08T08:59:29;76.45;;;45.30;;
76380;SDS011;65202;52.520;10.528;2023-02-08T09:01:56;77.10;;;45.45;;
76380;SDS011;65202;52.520;10.528;2023-02-08T09:04:23;73.45;;;44.90;;
76380;SDS011;65202;52.520;10.528;2023-02-08T09:06:52;74.88;;;45.72;;
76380;SDS011;65202;52.520;10.528;2023-02-08T09:09:20;76.05;;;45.88;;
76380;SDS011;65202;52.520;10.528;2023-02-08T09:11:48;73.72;;;44.58;;
76380;SDS011;65202;52.520;10.528;2023-02-08T09:14:16;76.05;;;44.13;;
76380;SDS011;65202;52.520;10.528;2023-02-08T09:16:43;72.05;;;44.25;;
76380;SDS011;65202;52.520;10.528;2023-02-08T09:19:14;75.70;;;44.08;;
76380;SDS011;65202;52.520;10.528;2023-02-08T09:21:41;72.75;;;43.47;;
76380;SDS011;65202;52.520;10.528;2023-02-08T09:24:09;70.13;;;43.88;;
76380;SDS011;65202;52.520;10.528;2023-02-08T09:26:37;69.88;;;43.67;;
76380;SDS011;65202;52.520;10.528;2023-02-08T09:29:05;72.60;;;43.90;;
76380;SDS011;65202;52.520;10.528;2023-02-08T09:31:33;71.75;;;42.95;;
76380;SDS011;65202;52.520;10.528;2023-02-08T09:34:04;70.75;;;43.55;;
76380;SDS011;65202;52.520;10.528;2023-02-08T09:36:34;68.57;;;42.28;;
76380;SDS011;65202;52.520;10.528;2023-02-08T09:39:19;67.97;;;41.78;;
76380;SDS011;65202;52.520;10.528;2023-02-08T09:41:59;70.60;;;43.75;;
76380;SDS011;65202;52.520;10.528;2023-02-08T09:45:03;70.47;;;44.20;;
76380;SDS011;65202;52.520;10.528;2023-02-08T09:50:49;72.70;;;43.63;;
76380;SDS011;65202;52.520;10.528;2023-02-08T09:53:27;76.20;;;44.67;;
76380;SDS011;65202;52.520;10.528;2023-02-08T09:56:01;73.53;;;44.38;;
76380;SDS011;65202;52.520;10.528;2023-02-08T09:58:42;68.25;;;42.13;;
76380;SDS011;65202;52.520;10.528;2023-02-08T10:01:33;72.78;;;43.05;;
76380;SDS011;65202;52.520;10.528;2023-02-08T10:04:05;69.25;;;42.10;;
76380;SDS011;65202;52.520;10.528;2023-02-08T10:06:40;73.47;;;43.22;;
76380;SDS011;65202;52.520;10.528;2023-02-08T10:09:10;72.18;;;42.17;;
76380;SDS011;65202;52.520;10.528;2023-02-08T10:14:56;65.15;;;38.55;;
76380;SDS011;65202;52.520;10.528;2023-02-08T10:18:06;66.38;;;37.63;;
76380;SDS011;65202;52.520;10.528;2023-02-08T10:21:18;67.35;;;40.25;;
76380;SDS011;65202;52.520;10.528;2023-02-08T10:24:10;64.88;;;38.38;;
76380;SDS011;65202;52.520;10.528;2023-02-08T10:29:57;64.75;;;39.25;;
76380;SDS011;65202;52.520;10.528;2023-02-08T10:35:28;61.50;;;35.92;;
76380;SDS011;65202;52.520;10.528;2023-02-08T10:40:48;64.63;;;36.63;;
76380;SDS011;65202;52.520;10.528;2023-02-08T10:43:29;66.13;;;36.22;;
76380;SDS011;65202;52.520;10.528;2023-02-08T10:49:03;61.63;;;35.22;;
76380;SDS011;65202;52.520;10.528;2023-02-08T10:51:44;63.85;;;35.90;;
76380;SDS011;65202;52.520;10.528;2023-02-08T10:54:13;62.80;;;35.67;;
76380;SDS011;65202;52.520;10.528;2023-02-08T10:59:35;66.35;;;34.90;;
76380;SDS011;65202;52.520;10.528;2023-02-08T11:02:19;68.53;;;35.72;;
76380;SDS011;65202;52.520;10.528;2023-02-08T11:05:09;67.93;;;37.03;;
76380;SDS011;65202;52.520;10.528;2023-02-08T11:07:44;68.70;;;36.67;;
76380;SDS011;65202;52.520;10.528;2023-02-08T11:18:33;64.25;;;35.15;;
76380;SDS011;65202;52.520;10.528;2023-02-08T11:21:20;58.13;;;33.28;;
76380;SDS011;65202;52.520;10.528;2023-02-08T11:26:52;61.88;;;32.75;;
76380;SDS011;65202;52.520;10.528;2023-02-08T11:29:23;63.15;;;33.63;;
76380;SDS011;65202;52.520;10.528;2023-02-08T11:31:57;66.25;;;32.50;;
76380;SDS011;65202;52.520;10.528;2023-02-08T11:37:13;59.08;;;30.92;;
76380;SDS011;65202;52.520;10.528;2023-02-08T11:39:55;47.88;;;27.65;;
76380;SDS011;65202;52.520;10.528;2023-02-08T11:42:30;54.90;;;30.27;;
76380;SDS011;65202;52.520;10.528;2023-02-08T11:45:06;55.47;;;29.17;;
76380;SDS011;65202;52.520;10.528;2023-02-08T11:47:34;54.33;;;30.05;;
76380;SDS011;65202;52.520;10.528;2023-02-08T11:50:04;58.17;;;31.33;;
76380;SDS011;65202;52.520;10.528;2023-02-08T11:52:56;58.03;;;31.42;;
76380;SDS011;65202;52.520;10.528;2023-02-08T11:55:27;56.53;;;31.15;;
76380;SDS011;65202;52.520;10.528;2023-02-08T11:58:02;55.17;;;29.75;;
76380;SDS011;65202;52.520;10.528;2023-02-08T12:00:56;50.42;;;28.13;;
76380;SDS011;65202;52.520;10.528;2023-02-08T12:03:51;51.42;;;28.50;;
76380;SDS011;65202;52.520;10.528;2023-02-08T12:09:35;44.85;;;25.10;;
76380;SDS011;65202;52.520;10.528;2023-02-08T12:22:25;29.90;;;15.50;;
76380;SDS011;65202;52.520;10.528;2023-02-08T12:36:07;11.70;;;6.87;;
76380;SDS011;65202;52.520;10.528;2023-02-08T12:41:53;13.98;;;7.53;;
76380;SDS011;65202;52.520;10.528;2023-02-08T12:50:37;14.13;;;7.00;;
76380;SDS011;65202;52.520;10.528;2023-02-08T12:53:26;13.85;;;7.75;;
76380;SDS011;65202;52.520;10.528;2023-02-08T12:56:04;18.00;;;10.55;;
76380;SDS011;65202;52.520;10.528;2023-02-08T12:58:43;18.45;;;10.05;;
76380;SDS011;65202;52.520;10.528;2023-02-08T13:04:03;21.63;;;10.10;;
76380;SDS011;65202;52.520;10.528;2023-02-08T13:06:41;19.50;;;10.70;;
76380;SDS011;65202;52.520;10.528;2023-02-08T13:12:24;28.90;;;13.13;;
76380;SDS011;65202;52.520;10.528;2023-02-08T13:15:06;22.98;;;13.20;;
76380;SDS011;65202;52.520;10.528;2023-02-08T13:18:30;27.20;;;14.40;;
76380;SDS011;65202;52.520;10.528;2023-02-08T13:21:02;26.75;;;14.25;;
76380;SDS011;65202;52.520;10.528;2023-02-08T13:23:41;28.45;;;14.40;;
76380;SDS011;65202;52.520;10.528;2023-02-08T13:26:26;30.45;;;15.07;;
76380;SDS011;65202;52.520;10.528;2023-02-08T13:28:59;26.80;;;14.73;;
76380;SDS011;65202;52.520;10.528;2023-02-08T13:31:38;26.75;;;14.25;;
76380;SDS011;65202;52.520;10.528;2023-02-08T13:34:14;24.83;;;14.00;;
76380;SDS011;65202;52.520;10.528;2023-02-08T13:36:56;26.20;;;14.07;;
76380;SDS011;65202;52.520;10.528;2023-02-08T13:39:32;30.37;;;17.53;;
76380;SDS011;65202;52.520;10.528;2023-02-08T13:42:19;30.67;;;17.70;;
76380;SDS011;65202;52.520;10.528;2023-02-08T13:44:56;30.05;;;16.92;;
76380;SDS011;65202;52.520;10.528;2023-02-08T13:47:32;28.30;;;17.35;;
76380;SDS011;65202;52.520;10.528;2023-02-08T13:53:01;37.65;;;20.75;;
76380;SDS011;65202;52.520;10.528;2023-02-08T13:57:58;37.13;;;21.95;;
76380;SDS011;65202;52.520;10.528;2023-02-08T14:00:32;44.28;;;23.40;;
76380;SDS011;65202;52.520;10.528;2023-02-08T14:08:16;44.03;;;23.60;;
76380;SDS011;65202;52.520;10.528;2023-02-08T14:11:01;44.80;;;24.50;;
76380;SDS011;65202;52.520;10.528;2023-02-08T14:16:21;37.63;;;21.77;;
76380;SDS011;65202;52.520;10.528;2023-02-08T14:19:02;40.20;;;22.67;;
76380;SDS011;65202;52.520;10.528;2023-02-08T14:22:35;37.17;;;21.73;;
76380;SDS011;65202;52.520;10.528;2023-02-08T14:24:37;39.53;;;21.70;;
76380;SDS011;65202;52.520;10.528;2023-02-08T14:27:16;40.00;;;22.05;;
76380;SDS011;65202;52.520;10.528;2023-02-08T14:29:59;39.00;;;23.00;;
76380;SDS011;65202;52.520;10.528;2023-02-08T14:32:34;38.03;;;22.15;;
76380;SDS011;65202;52.520;10.528;2023-02-08T14:35:16;45.03;;;23.70;;
76380;SDS011;65202;52.520;10.528;2023-02-08T14:43:39;48.85;;;27.63;;
76380;SDS011;65202;52.520;10.528;2023-02-08T14:49:04;54.70;;;29.65;;
76380;SDS011;65202;52.520;10.528;2023-02-08T14:51:40;52.30;;;29.40;;
76380;SDS011;65202;52.520;10.528;2023-02-08T14:54:31;53.65;;;29.45;;
76380;SDS011;65202;52.520;10.528;2023-02-08T14:57:26;55.45;;;30.20;;
76380;SDS011;65202;52.520;10.528;2023-02-08T15:00:01;55.33;;;30.38;;
76380;SDS011;65202;52.520;10.528;2023-02-08T15:02:43;42.93;;;22.40;;
76380;SDS011;65202;52.520;10.528;2023-02-08T15:05:25;51.83;;;28.73;;
76380;SDS011;65202;52.520;10.528;2023-02-08T15:07:56;54.65;;;30.58;;
76380;SDS011;65202;52.520;10.528;2023-02-08T15:10:26;56.03;;;28.30;;
76380;SDS011;65202;52.520;10.528;2023-02-08T15:12:57;50.40;;;27.63;;
76380;SDS011;65202;52.520;10.528;2023-02-08T15:18:04;53.20;;;27.30;;
76380;SDS011;65202;52.520;10.528;2023-02-08T15:20:44;54.45;;;26.52;;
76380;SDS011;65202;52.520;10.528;2023-02-08T15:23:24;46.40;;;24.80;;
76380;SDS011;65202;52.520;10.528;2023-02-08T15:26:02;50.22;;;26.50;;
76380;SDS011;65202;52.520;10.528;2023-02-08T15:28:44;47.13;;;25.03;;
76380;SDS011;65202;52.520;10.528;2023-02-08T15:31:16;47.63;;;24.77;;
76380;SDS011;65202;52.520;10.528;2023-02-08T15:33:47;47.22;;;25.27;;
76380;SDS011;65202;52.520;10.528;2023-02-08T15:36:20;48.53;;;24.65;;
76380;SDS011;65202;52.520;10.528;2023-02-08T15:38:56;51.45;;;25.60;;
76380;SDS011;65202;52.520;10.528;2023-02-08T15:41:27;52.50;;;26.67;;
76380;SDS011;65202;52.520;10.528;2023-02-08T15:44:12;54.28;;;27.05;;
76380;SDS011;65202;52.520;10.528;2023-02-08T15:46:47;49.10;;;26.58;;
76380;SDS011;65202;52.520;10.528;2023-02-08T15:49:29;51.83;;;26.30;;
76380;SDS011;65202;52.520;10.528;2023-02-08T15:52:05;50.63;;;26.35;;
76380;SDS011;65202;52.520;10.528;2023-02-08T15:54:34;54.45;;;29.38;;
76380;SDS011;65202;52.520;10.528;2023-02-08T15:57:03;55.35;;;30.85;;
76380;SDS011;65202;52.520;10.528;2023-02-08T15:59:42;64.40;;;33.70;;
76380;SDS011;65202;52.520;10.528;2023-02-08T16:02:27;64.80;;;32.88;;
76380;SDS011;65202;52.520;10.528;2023-02-08T16:05:00;66.07;;;34.63;;
76380;SDS011;65202;52.520;10.528;2023-02-08T16:07:38;67.68;;;34.85;;
76380;SDS011;65202;52.520;10.528;2023-02-08T16:13:05;72.20;;;35.28;;
76380;SDS011;65202;52.520;10.528;2023-02-08T16:15:44;71.60;;;37.15;;
76380;SDS011;65202;52.520;10.528;2023-02-08T16:23:55;66.30;;;33.85;;
76380;SDS011;65202;52.520;10.528;2023-02-08T16:26:33;64.85;;;32.92;;
76380;SDS011;65202;52.520;10.528;2023-02-08T16:29:23;69.68;;;33.42;;
76380;SDS011;65202;52.520;10.528;2023-02-08T16:34:59;66.55;;;32.47;;
76380;SDS011;65202;52.520;10.528;2023-02-08T16:37:39;63.88;;;32.45;;
76380;SDS011;65202;52.520;10.528;2023-02-08T16:40:53;71.25;;;33.13;;
76380;SDS011;65202;52.520;10.528;2023-02-08T16:43:23;74.77;;;34.23;;
76380;SDS011;65202;52.520;10.528;2023-02-08T16:48:40;72.93;;;34.92;;
76380;SDS011;65202;52.520;10.528;2023-02-08T16:51:11;72.63;;;35.20;;
76380;SDS011;65202;52.520;10.528;2023-02-08T16:53:43;77.07;;;37.80;;
76380;SDS011;65202;52.520;10.528;2023-02-08T16:56:13;76.95;;;37.92;;
76380;SDS011;65202;52.520;10.528;2023-02-08T16:58:41;73.18;;;36.78;;
76380;SDS011;65202;52.520;10.528;2023-02-08T17:01:11;80.28;;;38.55;;
76380;SDS011;65202;52.520;10.528;2023-02-08T17:03:40;89.35;;;41.22;;
76380;SDS011;65202;52.520;10.528;2023-02-08T17:06:15;87.60;;;42.17;;
76380;SDS011;65202;52.520;10.528;2023-02-08T17:08:51;80.90;;;40.85;;
76380;SDS011;65202;52.520;10.528;2023-02-08T17:11:19;85.10;;;41.28;;